West Sacramento, California
Current Conditions -  °F | °C
As of 10:53 AM on Monday 22 Dec 2014 (Local Time) from KSAC Reporting Station
Broken Clouds Broken Clouds  
Wind Chill: 60°   Ceiling: 1200
Heat Index: 60°   Visibility: 10mi
Dew Point: 54°   Wind: 10mph
Humidity: 80%   Direction: 330°NNW
Pressure: 30.28"   Gusts: NA
Location:  38.57°N, 121.55°W
Report Text: KSAC 221853Z AUTO 33009KT 10SM BKN012 16/12 A3028 RMK AO2 SLP251 T01560122 TSNO
Loading
Personal Weather Stations






























Interactive Weather Map New forecast layout! Learn more

10-Day Weather Forecast

Advertisements
Track Severe Weather on mobile